createdAt,value
2023-01-19T00:00:58.442Z,27.04
2023-01-19T00:01:58.403Z,26.96
2023-01-19T00:02:58.408Z,27.02
2023-01-19T00:03:58.360Z,26.94
2023-01-19T00:04:58.336Z,27.07
2023-01-19T00:05:58.336Z,27.00
2023-01-19T00:06:58.309Z,26.98
2023-01-19T00:07:58.746Z,27.07
2023-01-19T00:08:58.264Z,27.10
2023-01-19T00:09:58.248Z,27.05
2023-01-19T00:10:58.235Z,26.80
2023-01-19T00:11:58.215Z,26.90
2023-01-19T00:12:58.583Z,26.99
2023-01-19T00:13:58.183Z,26.99
2023-01-19T00:14:58.158Z,26.98
2023-01-19T00:15:58.180Z,27.02
2023-01-19T00:16:58.124Z,26.91
2023-01-19T00:17:58.083Z,27.02
2023-01-19T00:18:58.072Z,26.81
2023-01-19T00:19:58.052Z,26.87
2023-01-19T00:20:58.026Z,26.89
2023-01-19T00:21:58.025Z,26.98
2023-01-19T00:22:58.405Z,27.01
2023-01-19T00:23:57.983Z,26.99
2023-01-19T00:24:57.961Z,26.88
2023-01-19T00:25:57.947Z,26.90
2023-01-19T00:26:57.924Z,26.98
2023-01-19T00:27:59.857Z,26.88
2023-01-19T00:28:57.887Z,26.80
2023-01-19T00:29:57.865Z,26.91
2023-01-19T00:30:57.840Z,27.02
2023-01-19T00:31:57.821Z,26.78
2023-01-19T00:32:58.474Z,26.98
2023-01-19T00:33:57.786Z,26.99
2023-01-19T00:34:57.768Z,26.87
2023-01-19T00:35:57.747Z,26.91
2023-01-19T00:36:57.736Z,27.01
2023-01-19T00:37:57.709Z,26.91
2023-01-19T00:38:57.694Z,26.98
2023-01-19T00:39:57.670Z,26.90
2023-01-19T00:40:57.656Z,26.99
2023-01-19T00:41:57.630Z,26.90
2023-01-19T00:42:58.013Z,26.96
2023-01-19T00:43:57.582Z,26.96
2023-01-19T00:44:57.557Z,26.99
2023-01-19T00:45:57.557Z,27.04
2023-01-19T00:46:57.516Z,27.03
2023-01-19T00:47:57.515Z,26.99
2023-01-19T00:48:57.475Z,27.03
2023-01-19T00:49:57.449Z,26.83
2023-01-19T00:50:57.431Z,26.99
2023-01-19T00:51:57.423Z,26.95
2023-01-19T00:52:57.728Z,26.90
2023-01-19T00:53:57.387Z,26.88
2023-01-19T00:54:57.364Z,26.91
2023-01-19T00:55:57.346Z,26.93
2023-01-19T00:56:57.334Z,26.88
2023-01-19T00:57:57.308Z,26.86
2023-01-19T00:58:57.292Z,26.92
2023-01-19T00:59:57.268Z,26.91
2023-01-19T01:00:57.409Z,26.83
2023-01-19T01:01:57.359Z,27.07
2023-01-19T01:02:57.291Z,26.87
2023-01-19T01:03:57.209Z,26.88
2023-01-19T01:04:57.197Z,26.96
2023-01-19T01:05:57.178Z,26.91
2023-01-19T01:06:57.171Z,26.95
2023-01-19T01:07:57.156Z,26.92
2023-01-19T01:08:57.138Z,26.87
2023-01-19T01:09:57.136Z,26.98
2023-01-19T01:10:57.104Z,27.03
2023-01-19T01:11:57.097Z,27.02
2023-01-19T01:13:23.729Z,26.95
2023-01-19T01:13:58.068Z,26.95
2023-01-19T01:14:57.033Z,26.88
2023-01-19T01:15:57.041Z,26.98
2023-01-19T01:16:57.032Z,27.04
2023-01-19T01:17:56.977Z,26.99
2023-01-19T01:18:56.967Z,26.90
2023-01-19T01:19:56.950Z,27.06
2023-01-19T01:20:56.924Z,26.87
2023-01-19T01:21:56.907Z,26.65
2023-01-19T01:22:56.925Z,26.90
2023-01-19T01:23:56.894Z,27.03
2023-01-19T01:24:56.862Z,26.80
2023-01-19T01:25:56.851Z,26.91
2023-01-19T01:26:56.842Z,26.99
2023-01-19T01:27:56.810Z,27.02
2023-01-19T01:28:56.795Z,26.83
2023-01-19T01:29:56.777Z,26.90
2023-01-19T01:30:56.761Z,26.92
2023-01-19T01:31:56.786Z,26.91
2023-01-19T01:32:56.744Z,26.87
2023-01-19T01:33:56.725Z,26.86
2023-01-19T01:34:56.700Z,26.95
2023-01-19T01:35:56.694Z,27.00
2023-01-19T01:36:56.657Z,26.84
2023-01-19T01:37:56.641Z,26.83
2023-01-19T01:38:56.645Z,26.96
2023-01-19T01:39:56.609Z,27.04
2023-01-19T01:40:56.583Z,26.84
2023-01-19T01:41:56.640Z,26.81
2023-01-19T01:42:56.540Z,26.99
2023-01-19T01:43:56.535Z,26.95
2023-01-19T01:44:56.522Z,26.77
2023-01-19T01:45:56.515Z,26.86
2023-01-19T01:46:56.473Z,26.91
2023-01-19T01:47:56.442Z,26.95
2023-01-19T01:48:56.417Z,26.95
2023-01-19T01:49:56.383Z,27.02
2023-01-19T01:50:56.371Z,26.84
2023-01-19T01:51:56.351Z,26.77
2023-01-19T01:53:07.573Z,26.86
2023-01-19T01:54:56.297Z,26.85
2023-01-19T01:55:56.279Z,26.99
2023-01-19T01:56:56.263Z,26.80
2023-01-19T01:57:56.242Z,26.97
2023-01-19T01:58:56.213Z,26.95
2023-01-19T01:59:56.201Z,27.00
2023-01-19T02:00:56.240Z,26.84
2023-01-19T02:01:56.216Z,26.92
2023-01-19T02:02:56.225Z,26.87
2023-01-19T02:03:56.136Z,26.89
2023-01-19T02:04:56.100Z,26.91
2023-01-19T02:05:56.095Z,26.84
2023-01-19T02:06:56.078Z,26.96
2023-01-19T02:07:56.063Z,26.85
2023-01-19T02:08:56.043Z,26.88
2023-01-19T02:09:56.032Z,26.84
2023-01-19T02:10:55.995Z,26.90
2023-01-19T02:11:55.974Z,26.81
2023-01-19T02:12:55.959Z,26.76
2023-01-19T02:13:55.937Z,26.88
2023-01-19T02:14:55.914Z,26.96
2023-01-19T02:15:55.924Z,26.77
2023-01-19T02:16:55.927Z,26.73
2023-01-19T02:17:55.854Z,26.81
2023-01-19T02:18:55.831Z,26.86
2023-01-19T02:19:55.804Z,26.90
2023-01-19T02:20:55.785Z,26.77
2023-01-19T02:21:55.775Z,26.94
2023-01-19T02:22:55.751Z,26.90
2023-01-19T02:23:55.739Z,26.94
2023-01-19T02:24:55.715Z,26.73
2023-01-19T02:25:55.707Z,26.79
2023-01-19T02:26:55.699Z,26.99
2023-01-19T02:27:55.663Z,26.88
2023-01-19T02:28:55.663Z,26.89
2023-01-19T02:29:55.628Z,26.95
2023-01-19T02:30:55.633Z,27.06
2023-01-19T02:31:55.594Z,26.89
2023-01-19T02:32:55.569Z,26.75
2023-01-19T02:33:55.551Z,26.95
2023-01-19T02:34:55.518Z,26.98
2023-01-19T02:35:55.498Z,26.89
2023-01-19T02:36:55.485Z,26.95
2023-01-19T02:37:55.465Z,26.82
2023-01-19T02:38:55.451Z,26.97
2023-01-19T02:39:55.445Z,26.99
2023-01-19T02:40:55.395Z,26.81
2023-01-19T02:41:55.371Z,26.94
2023-01-19T02:42:55.346Z,27.07
2023-01-19T02:43:55.338Z,26.82
2023-01-19T02:44:55.311Z,26.86
2023-01-19T02:45:55.316Z,26.99
2023-01-19T02:46:55.278Z,26.89
2023-01-19T02:47:55.280Z,26.98
2023-01-19T02:48:55.246Z,27.00
2023-01-19T02:49:55.239Z,26.82
2023-01-19T02:50:55.224Z,26.99
2023-01-19T02:51:55.211Z,26.82
2023-01-19T02:52:55.187Z,26.88
2023-01-19T02:53:55.189Z,26.82
2023-01-19T02:54:55.158Z,26.86
2023-01-19T02:55:55.137Z,26.83
2023-01-19T02:56:55.115Z,26.85
2023-01-19T02:57:55.093Z,26.95
2023-01-19T02:58:55.088Z,26.94
2023-01-19T02:59:55.060Z,26.99
2023-01-19T03:00:55.074Z,26.83
2023-01-19T03:01:55.091Z,27.06
2023-01-19T03:02:55.059Z,26.95
2023-01-19T03:03:54.982Z,26.87
2023-01-19T03:04:54.949Z,26.94
2023-01-19T03:05:54.929Z,26.99
2023-01-19T03:06:54.923Z,26.93
2023-01-19T03:07:54.897Z,26.91
2023-01-19T03:08:54.897Z,26.85
2023-01-19T03:09:54.866Z,27.01
2023-01-19T03:10:54.832Z,26.83
2023-01-19T03:11:54.812Z,26.85
2023-01-19T03:12:54.793Z,26.95
2023-01-19T03:13:54.799Z,27.01
2023-01-19T03:14:54.770Z,26.79
2023-01-19T03:15:54.849Z,26.93
2023-01-19T03:16:54.787Z,26.97
2023-01-19T03:17:54.681Z,26.78
2023-01-19T03:18:54.673Z,26.75
2023-01-19T03:19:54.646Z,26.94
2023-01-19T03:20:54.643Z,26.90
2023-01-19T03:21:54.608Z,26.69
2023-01-19T03:22:54.582Z,26.71
2023-01-19T03:23:54.568Z,26.91
2023-01-19T03:24:54.551Z,26.91
2023-01-19T03:25:54.537Z,26.85
2023-01-19T03:26:54.515Z,26.90
2023-01-19T03:27:54.499Z,26.75
2023-01-19T03:28:54.474Z,26.89
2023-01-19T03:29:54.451Z,26.70
2023-01-19T03:30:54.448Z,26.83
2023-01-19T03:31:54.414Z,26.75
2023-01-19T03:32:54.396Z,26.81
2023-01-19T03:33:54.393Z,26.90
2023-01-19T03:34:54.358Z,26.75
2023-01-19T03:35:54.333Z,26.94
2023-01-19T03:36:54.313Z,27.01
2023-01-19T03:37:54.296Z,26.90
2023-01-19T03:38:54.270Z,26.84
2023-01-19T03:39:54.265Z,26.86
2023-01-19T03:40:54.240Z,26.79
2023-01-19T03:41:54.217Z,26.82
2023-01-19T03:42:54.193Z,26.99
2023-01-19T03:43:54.167Z,26.73
2023-01-19T03:44:54.134Z,26.89
2023-01-19T03:45:54.120Z,27.02
2023-01-19T03:46:54.089Z,26.90
2023-01-19T03:47:54.072Z,26.83
2023-01-19T03:48:54.051Z,26.86
2023-01-19T03:49:54.044Z,26.89
2023-01-19T03:50:54.009Z,26.90
2023-01-19T03:51:53.980Z,26.84
2023-01-19T03:52:53.961Z,26.77
2023-01-19T03:53:53.947Z,26.93
2023-01-19T03:54:53.925Z,26.86
2023-01-19T03:55:53.908Z,26.98
2023-01-19T03:56:53.877Z,26.85
2023-01-19T03:57:53.855Z,26.75
2023-01-19T03:58:56.117Z,26.93
2023-01-19T03:59:53.825Z,26.99
2023-01-19T04:00:53.844Z,26.77
2023-01-19T04:01:53.864Z,26.84
2023-01-19T04:02:53.762Z,26.99
2023-01-19T04:03:53.734Z,26.94
2023-01-19T04:04:53.715Z,26.75
2023-01-19T04:05:53.683Z,26.90
2023-01-19T04:06:53.659Z,26.93
2023-01-19T04:07:53.647Z,26.86
2023-01-19T04:08:53.621Z,26.87
2023-01-19T04:09:53.612Z,26.86
2023-01-19T04:10:53.587Z,26.78
2023-01-19T04:11:53.563Z,26.91
2023-01-19T04:12:53.561Z,26.79
2023-01-19T04:13:53.523Z,26.78
2023-01-19T04:14:53.493Z,26.86
2023-01-19T04:15:53.500Z,26.86
2023-01-19T04:16:53.443Z,26.89
2023-01-19T04:17:53.413Z,26.86
2023-01-19T04:18:53.416Z,26.95
2023-01-19T04:19:53.372Z,26.89
2023-01-19T04:20:53.332Z,26.86
2023-01-19T04:21:53.309Z,26.66
2023-01-19T04:22:53.280Z,26.89
2023-01-19T04:23:53.264Z,26.71
2023-01-19T04:24:53.238Z,26.74
2023-01-19T04:25:53.218Z,26.82
2023-01-19T04:26:53.220Z,26.93
2023-01-19T04:27:53.183Z,26.90
2023-01-19T04:28:53.143Z,26.81
2023-01-19T04:29:53.121Z,26.79
2023-01-19T04:30:53.214Z,26.86
2023-01-19T04:31:53.081Z,26.85
2023-01-19T04:32:53.055Z,26.81
2023-01-19T04:33:53.046Z,26.79
2023-01-19T04:34:53.010Z,26.91
2023-01-19T04:35:54.437Z,26.81
2023-01-19T04:36:52.964Z,26.75
2023-01-19T04:37:52.929Z,26.82
2023-01-19T04:38:52.897Z,26.90
2023-01-19T04:39:52.886Z,26.85
2023-01-19T04:40:52.893Z,26.81
2023-01-19T04:41:52.829Z,26.81
2023-01-19T04:42:52.798Z,26.83
2023-01-19T04:43:52.791Z,26.94
2023-01-19T04:44:52.754Z,26.90
2023-01-19T04:45:52.736Z,26.93
2023-01-19T04:46:52.724Z,26.73
2023-01-19T04:47:52.694Z,26.79
2023-01-19T04:48:52.675Z,26.86
2023-01-19T04:49:52.643Z,26.66
2023-01-19T04:50:52.637Z,26.79
2023-01-19T04:51:52.601Z,26.87
2023-01-19T04:52:52.595Z,26.87
2023-01-19T04:53:52.545Z,26.84
2023-01-19T04:54:52.549Z,26.79
2023-01-19T04:55:52.495Z,26.93
2023-01-19T04:56:52.473Z,26.95
2023-01-19T04:57:52.441Z,26.83
2023-01-19T04:58:52.412Z,26.86
2023-01-19T04:59:52.394Z,26.72
2023-01-19T05:00:52.420Z,26.81
2023-01-19T05:01:52.385Z,26.89
2023-01-19T05:02:52.344Z,26.74
2023-01-19T05:03:52.302Z,26.81
2023-01-19T05:04:52.259Z,26.86
2023-01-19T05:05:52.246Z,26.87
2023-01-19T05:06:52.209Z,26.75
2023-01-19T05:07:52.186Z,26.75
2023-01-19T05:08:52.157Z,26.73
2023-01-19T05:09:52.145Z,26.79
2023-01-19T05:10:52.148Z,26.82
2023-01-19T05:11:52.096Z,26.81
2023-01-19T05:12:52.075Z,26.85
2023-01-19T05:13:52.057Z,26.81
2023-01-19T05:14:52.035Z,26.81
2023-01-19T05:15:52.102Z,26.89
2023-01-19T05:16:51.988Z,26.71
2023-01-19T05:17:51.959Z,26.59
2023-01-19T05:18:51.940Z,26.78
2023-01-19T05:19:51.901Z,26.71
2023-01-19T05:20:51.889Z,26.71
2023-01-19T05:21:51.883Z,26.79
2023-01-19T05:22:51.841Z,26.82
2023-01-19T05:23:51.850Z,26.75
2023-01-19T05:24:51.811Z,26.63
2023-01-19T05:25:51.792Z,26.87
2023-01-19T05:26:51.740Z,26.89
2023-01-19T05:27:51.733Z,26.82
2023-01-19T05:28:51.703Z,26.62
2023-01-19T05:29:51.672Z,26.91
2023-01-19T05:30:51.679Z,26.78
2023-01-19T05:31:51.671Z,26.82
2023-01-19T05:32:51.646Z,26.70
2023-01-19T05:33:51.606Z,26.78
2023-01-19T05:34:51.566Z,26.83
2023-01-19T05:35:51.541Z,26.86
2023-01-19T05:36:51.521Z,26.74
2023-01-19T05:37:51.509Z,26.54
2023-01-19T05:38:51.479Z,26.70
2023-01-19T05:39:51.459Z,26.82
2023-01-19T05:40:51.445Z,26.90
2023-01-19T05:41:51.416Z,26.80
2023-01-19T05:42:51.385Z,26.84
2023-01-19T05:43:51.371Z,26.72
2023-01-19T05:44:51.346Z,26.69
2023-01-19T05:45:51.313Z,26.70
2023-01-19T05:46:51.346Z,26.75
2023-01-19T05:47:51.259Z,26.80
2023-01-19T05:48:51.222Z,26.72
2023-01-19T05:49:51.200Z,26.64
2023-01-19T05:50:51.186Z,26.91
2023-01-19T05:51:51.159Z,26.79
2023-01-19T05:52:51.121Z,26.73
2023-01-19T05:53:51.146Z,26.61
2023-01-19T05:54:51.065Z,26.75
2023-01-19T05:55:51.026Z,26.79
2023-01-19T05:56:51.011Z,26.65
2023-01-19T05:57:50.980Z,26.81
2023-01-19T05:58:50.947Z,26.71
2023-01-19T05:59:50.930Z,26.77
2023-01-19T06:00:50.953Z,26.72
2023-01-19T06:01:50.991Z,26.79
2023-01-19T06:02:50.918Z,26.72
2023-01-19T06:03:50.807Z,26.89
2023-01-19T06:04:50.793Z,26.76
2023-01-19T06:05:50.769Z,26.58
2023-01-19T06:06:50.735Z,26.68
2023-01-19T06:07:50.702Z,26.79
2023-01-19T06:08:50.676Z,26.66
2023-01-19T06:09:50.649Z,26.84
2023-01-19T06:10:50.634Z,26.74
2023-01-19T06:11:50.604Z,26.83
2023-01-19T06:12:50.575Z,26.60
2023-01-19T06:13:50.549Z,26.80
2023-01-19T06:14:50.537Z,26.74
2023-01-19T06:15:50.509Z,26.85
2023-01-19T06:16:50.507Z,26.75
2023-01-19T06:17:50.456Z,26.69
2023-01-19T06:18:50.443Z,26.77
2023-01-19T06:19:50.420Z,26.81
2023-01-19T06:20:50.394Z,26.60
2023-01-19T06:21:50.384Z,26.81
2023-01-19T06:22:50.355Z,26.68
2023-01-19T06:23:50.328Z,26.72
2023-01-19T06:24:50.314Z,26.80
2023-01-19T06:25:50.287Z,26.83
2023-01-19T06:26:50.255Z,26.88
2023-01-19T06:27:50.292Z,26.85
2023-01-19T06:28:50.227Z,26.81
2023-01-19T06:29:50.198Z,26.81
2023-01-19T06:30:50.206Z,26.84
2023-01-19T06:31:50.194Z,26.89
2023-01-19T06:32:50.133Z,26.90
2023-01-19T06:33:50.162Z,26.88
2023-01-19T06:34:51.055Z,26.81
2023-01-19T06:35:50.092Z,26.85
2023-01-19T06:36:50.067Z,26.79
2023-01-19T06:37:50.044Z,26.79
2023-01-19T06:38:50.053Z,26.79
2023-01-19T06:39:50.000Z,26.80
2023-01-19T06:40:49.973Z,26.82
2023-01-19T06:41:49.975Z,26.72
2023-01-19T06:42:50.051Z,26.69
2023-01-19T06:43:49.911Z,26.74
2023-01-19T06:44:49.884Z,26.72
2023-01-19T06:45:49.912Z,26.73
2023-01-19T06:46:49.839Z,26.72
2023-01-19T06:47:49.846Z,26.74
2023-01-19T06:48:49.816Z,26.69
2023-01-19T06:49:49.780Z,26.99
2023-01-19T06:50:49.756Z,28.60
2023-01-19T06:51:49.750Z,28.93
2023-01-19T06:52:49.719Z,29.17
2023-01-19T06:53:49.690Z,29.42
2023-01-19T06:54:49.804Z,29.61
2023-01-19T06:55:49.671Z,29.83
2023-01-19T06:56:49.622Z,30.01
2023-01-19T06:57:49.671Z,29.95
2023-01-19T06:58:49.583Z,30.05
2023-01-19T06:59:49.561Z,30.24
2023-01-19T07:00:49.572Z,30.41
2023-01-19T07:01:49.608Z,30.53
2023-01-19T07:02:49.514Z,30.71
2023-01-19T07:03:49.476Z,30.85
2023-01-19T07:04:49.427Z,30.86
2023-01-19T07:05:49.391Z,31.08
2023-01-19T07:06:49.395Z,31.30
2023-01-19T07:07:49.339Z,31.64
2023-01-19T07:08:49.307Z,31.36
2023-01-19T07:09:49.268Z,31.33
2023-01-19T07:11:26.319Z,31.36
2023-01-19T07:11:50.224Z,31.52
2023-01-19T07:12:49.198Z,31.50
2023-01-19T07:13:49.277Z,31.78
2023-01-19T07:14:49.146Z,31.73
2023-01-19T07:15:49.100Z,31.92
2023-01-19T07:16:49.104Z,32.02
2023-01-19T07:17:49.046Z,32.04
2023-01-19T07:18:49.003Z,32.25
2023-01-19T07:19:48.974Z,32.35
2023-01-19T07:20:48.981Z,32.25
2023-01-19T07:21:48.917Z,32.17
2023-01-19T09:18:45.332Z,26.90
2023-01-19T09:37:44.883Z,25.43
2023-01-19T09:38:44.867Z,25.52
2023-01-19T09:39:44.863Z,25.16
2023-01-19T09:40:44.812Z,24.77
2023-01-19T09:41:44.768Z,24.98
2023-01-19T09:42:44.758Z,25.28
2023-01-19T09:43:44.768Z,25.55
2023-01-19T09:44:44.671Z,25.46
2023-01-19T09:45:44.679Z,25.52
2023-01-19T09:46:44.698Z,24.97
2023-01-19T09:47:44.604Z,25.08
2023-01-19T09:48:44.567Z,24.46
2023-01-19T09:49:44.559Z,24.79
2023-01-19T09:50:44.513Z,25.40
2023-01-19T09:51:44.537Z,26.42
2023-01-19T09:52:44.464Z,25.90
2023-01-19T09:53:44.441Z,26.52
2023-01-19T09:54:44.451Z,26.85
2023-01-19T09:55:44.441Z,27.57
2023-01-19T09:56:44.391Z,27.80
2023-01-19T09:57:44.331Z,27.88
2023-01-19T09:58:44.362Z,28.09
2023-01-19T09:59:44.280Z,28.14
2023-01-19T10:00:44.351Z,28.46
2023-01-19T10:01:44.313Z,28.94
2023-01-19T10:02:44.308Z,29.32
2023-01-19T10:03:44.154Z,29.20
2023-01-19T10:04:44.128Z,29.26
2023-01-19T10:05:44.086Z,29.37
2023-01-19T10:06:44.071Z,29.78
2023-01-19T10:07:44.064Z,29.88
2023-01-19T10:08:44.017Z,30.28
2023-01-19T10:09:43.979Z,30.53
2023-01-19T10:10:43.947Z,29.96
2023-01-19T10:11:52.582Z,30.09
2023-01-19T10:12:44.867Z,30.26
2023-01-19T10:13:43.820Z,30.63
2023-01-19T10:14:43.793Z,31.01
2023-01-19T10:15:43.770Z,30.96
2023-01-19T10:16:43.718Z,30.68
2023-01-19T10:17:43.697Z,30.34
2023-01-19T10:18:43.652Z,31.01
2023-01-19T10:19:46.362Z,31.12
2023-01-19T10:20:43.590Z,31.57
2023-01-19T10:21:43.557Z,31.57
2023-01-19T10:22:43.506Z,31.24
2023-01-19T10:23:43.458Z,31.25
2023-01-19T10:24:43.424Z,31.24
2023-01-19T10:25:43.496Z,31.19
2023-01-19T10:26:43.377Z,32.02
2023-01-19T10:27:43.354Z,31.93
2023-01-19T10:28:43.272Z,31.27
2023-01-19T10:29:43.231Z,31.42
2023-01-19T10:30:43.239Z,31.31
2023-01-19T10:31:43.172Z,31.55
2023-01-19T10:32:43.102Z,32.05
2023-01-19T10:33:43.059Z,31.79
2023-01-19T10:34:43.015Z,31.76
2023-01-19T10:35:43.006Z,31.66
2023-01-19T10:36:42.977Z,32.31
2023-01-19T10:37:42.918Z,32.20
2023-01-19T10:38:42.883Z,33.04
2023-01-19T10:39:42.831Z,32.98
2023-01-19T10:40:42.793Z,33.09
2023-01-19T10:41:42.723Z,32.96
2023-01-19T10:42:42.691Z,32.58
2023-01-19T10:43:42.614Z,32.19
2023-01-19T10:44:42.581Z,32.22
2023-01-19T10:45:42.582Z,31.65
2023-01-19T10:46:42.501Z,29.46
2023-01-19T10:47:42.484Z,23.09
2023-01-19T10:48:42.411Z,18.56
2023-01-19T10:49:42.492Z,18.09
2023-01-19T10:50:42.462Z,17.70
2023-01-19T10:51:42.384Z,17.20
2023-01-19T10:52:42.354Z,18.46
2023-01-19T10:53:42.379Z,17.05
2023-01-19T10:54:42.373Z,17.41
2023-01-19T10:55:42.376Z,15.99
2023-01-19T10:56:42.430Z,16.85
2023-01-19T10:57:42.568Z,16.87
2023-01-19T10:58:42.500Z,16.07
2023-01-19T10:59:42.494Z,16.70
2023-01-19T11:00:42.650Z,15.30
2023-01-19T11:01:42.640Z,16.08
2023-01-19T11:02:42.655Z,15.97
2023-01-19T11:03:42.608Z,16.12
2023-01-19T11:04:42.721Z,15.75
2023-01-19T11:05:42.718Z,16.15
2023-01-19T11:06:42.767Z,16.54
2023-01-19T11:07:42.809Z,16.13
2023-01-19T11:08:42.853Z,16.66
2023-01-19T11:09:42.911Z,17.80
2023-01-19T11:10:42.957Z,18.52
2023-01-19T11:11:42.997Z,19.15
2023-01-19T11:12:43.029Z,19.46
2023-01-19T11:13:43.069Z,19.99
2023-01-19T11:14:43.112Z,20.58
2023-01-19T11:15:43.111Z,21.32
2023-01-19T11:16:43.176Z,21.63
2023-01-19T11:17:43.140Z,21.56
2023-01-19T11:18:43.158Z,21.73
2023-01-19T11:19:43.194Z,21.98
2023-01-19T11:20:43.172Z,22.13
2023-01-19T11:21:43.175Z,22.25
2023-01-19T11:22:43.173Z,23.18
2023-01-19T11:23:43.193Z,23.08
2023-01-19T11:24:43.174Z,23.11
2023-01-19T11:25:43.149Z,23.42
2023-01-19T11:26:43.169Z,23.56
2023-01-19T11:27:43.143Z,23.81
2023-01-19T11:28:45.054Z,23.99
2023-01-19T11:29:43.123Z,23.92
2023-01-19T11:30:43.133Z,23.94
2023-01-19T11:31:43.154Z,24.39
2023-01-19T11:32:43.132Z,24.21
2023-01-19T11:33:43.117Z,24.97
2023-01-19T11:34:43.095Z,25.06
2023-01-19T11:35:43.099Z,24.79
2023-01-19T11:36:43.090Z,24.82
2023-01-19T11:37:43.093Z,25.53
2023-01-19T11:38:43.065Z,26.23
2023-01-19T11:39:43.058Z,26.99
2023-01-19T11:40:43.035Z,26.22
2023-01-19T11:41:43.042Z,19.69
2023-01-19T11:42:43.028Z,18.48
2023-01-19T11:43:49.020Z,17.98
2023-01-19T11:44:44.053Z,18.32
2023-01-19T11:45:43.179Z,18.20
2023-01-19T11:46:43.150Z,19.18
2023-01-19T11:47:43.176Z,20.97
2023-01-19T11:48:43.184Z,23.13
2023-01-19T11:49:43.233Z,23.98
2023-01-19T11:50:43.256Z,24.28
2023-01-19T11:51:43.290Z,24.21
2023-01-19T11:52:43.324Z,25.82
2023-01-19T11:53:43.291Z,25.26
2023-01-19T11:54:43.574Z,25.91
2023-01-19T11:55:43.342Z,25.87
2023-01-19T11:56:43.329Z,25.90
2023-01-19T11:57:43.329Z,26.18
2023-01-19T11:58:43.335Z,26.17
2023-01-19T11:59:43.340Z,25.73
2023-01-19T12:00:43.345Z,26.25
2023-01-19T12:01:43.354Z,26.87
2023-01-19T12:02:43.346Z,26.98
2023-01-19T12:03:43.373Z,27.31
2023-01-19T12:04:43.360Z,27.13
2023-01-19T12:05:43.342Z,27.00
2023-01-19T12:06:43.342Z,27.09
2023-01-19T12:07:43.345Z,27.22
2023-01-19T12:08:43.321Z,27.46
2023-01-19T12:09:43.321Z,27.79
2023-01-19T12:10:43.311Z,27.85
2023-01-19T12:11:43.322Z,27.82
2023-01-19T12:12:43.291Z,27.24
2023-01-19T12:13:43.277Z,26.37
2023-01-19T12:14:43.288Z,26.19
2023-01-19T12:15:43.268Z,25.07
2023-01-19T12:16:43.350Z,24.56
2023-01-19T12:17:43.255Z,24.92
2023-01-19T12:18:43.267Z,24.19
2023-01-19T12:19:43.258Z,20.38
2023-01-19T12:20:43.276Z,19.30
2023-01-19T12:21:43.280Z,19.67
2023-01-19T12:22:43.301Z,21.79
2023-01-19T12:23:43.303Z,23.11
2023-01-19T12:24:43.296Z,22.98
2023-01-19T12:25:43.315Z,23.53
2023-01-19T12:26:43.303Z,23.75
2023-01-19T12:27:43.317Z,24.63
2023-01-19T12:28:43.306Z,25.56
2023-01-19T12:29:43.575Z,24.57
2023-01-19T12:30:43.430Z,24.78
2023-01-19T12:31:43.507Z,25.01
2023-01-19T12:32:43.278Z,25.17
2023-01-19T12:33:43.265Z,25.38
2023-01-19T12:34:43.261Z,25.45
2023-01-19T12:35:43.249Z,25.54
2023-01-19T12:36:43.223Z,25.69
2023-01-19T12:37:43.231Z,25.75
2023-01-19T12:38:43.195Z,25.71
2023-01-19T12:39:43.198Z,25.82
2023-01-19T12:40:43.190Z,25.88
2023-01-19T12:41:43.168Z,25.81
2023-01-19T12:42:43.165Z,25.73
2023-01-19T12:43:43.127Z,25.56
2023-01-19T12:44:43.115Z,25.38
2023-01-19T12:45:43.092Z,25.48
2023-01-19T13:41:42.210Z,24.60
2023-01-19T13:42:42.194Z,24.33
2023-01-19T13:43:42.185Z,24.51
2023-01-19T13:44:42.172Z,24.47
2023-01-19T13:45:42.157Z,24.83
2023-01-19T13:46:42.226Z,24.82
2023-01-19T13:47:42.131Z,24.22
2023-01-19T13:48:42.110Z,24.43
2023-01-19T13:49:42.091Z,24.33
2023-01-19T13:50:42.071Z,24.63
2023-01-19T13:51:42.063Z,24.75
2023-01-19T13:52:42.037Z,24.58
2023-01-19T13:53:42.035Z,24.30
2023-01-19T13:54:42.230Z,24.35
2023-01-19T13:55:42.039Z,24.58
2023-01-19T13:56:42.004Z,24.65
2023-01-19T13:57:42.005Z,24.72
2023-01-19T13:58:41.975Z,24.35
2023-01-19T13:59:41.968Z,24.01
2023-01-19T14:00:41.956Z,24.42
2023-01-19T14:01:42.098Z,24.55
2023-01-19T14:02:42.039Z,24.69
2023-01-19T14:03:41.916Z,24.66
2023-01-19T14:04:41.891Z,24.15
2023-01-19T14:05:41.918Z,24.39
2023-01-19T14:06:41.857Z,24.27
2023-01-19T14:07:41.870Z,24.58
2023-01-19T14:08:41.838Z,24.77
2023-01-19T14:09:41.810Z,24.45
2023-01-19T14:10:41.791Z,23.96
2023-01-19T14:11:41.785Z,24.45
2023-01-19T14:12:58.183Z,24.35
2023-01-19T14:13:42.785Z,24.59
2023-01-19T14:14:41.729Z,24.65
2023-01-19T14:15:41.783Z,24.15
2023-01-19T14:16:41.697Z,23.97
2023-01-19T14:17:41.684Z,24.34
2023-01-19T14:18:41.672Z,24.51
2023-01-19T14:19:41.681Z,24.74
2023-01-19T14:20:41.636Z,24.63
2023-01-19T14:21:41.644Z,24.32
2023-01-19T14:22:41.620Z,24.39
2023-01-19T14:23:41.591Z,24.43
2023-01-19T14:24:41.570Z,24.63
2023-01-19T14:25:41.549Z,24.66
2023-01-19T14:26:41.539Z,24.51
2023-01-19T14:27:41.520Z,24.03
2023-01-19T14:28:41.504Z,24.08
2023-01-19T14:29:41.483Z,24.43
2023-01-19T14:30:41.488Z,24.58
2023-01-19T14:31:41.528Z,24.65
2023-01-19T14:32:41.425Z,24.46
2023-01-19T14:33:41.464Z,24.07
2023-01-19T14:34:41.560Z,24.04
2023-01-19T14:35:41.379Z,24.35
2023-01-19T14:36:41.347Z,24.54
2023-01-19T14:37:41.337Z,24.50
2023-01-19T14:38:41.314Z,24.27
2023-01-19T14:39:41.297Z,24.31
2023-01-19T14:40:41.276Z,24.07
2023-01-19T14:41:41.255Z,24.41
2023-01-19T14:42:41.247Z,24.59
2023-01-19T14:43:41.245Z,24.39
2023-01-19T14:44:41.199Z,23.84
2023-01-19T14:45:41.188Z,24.28
2023-01-19T14:46:41.199Z,24.26
2023-01-19T14:47:41.140Z,24.33
2023-01-19T14:48:41.109Z,24.57
2023-01-19T14:49:41.101Z,24.40
2023-01-19T14:50:42.803Z,24.11
2023-01-19T14:52:41.042Z,24.11
2023-01-19T14:53:41.021Z,24.47
2023-01-19T14:54:41.019Z,24.55
2023-01-19T14:55:40.979Z,24.11
2023-01-19T14:56:40.971Z,24.04
2023-01-19T14:57:40.983Z,24.02
2023-01-19T14:58:40.928Z,24.39
2023-01-19T14:59:40.904Z,24.52
2023-01-19T15:00:40.913Z,24.27
2023-01-19T15:01:41.052Z,24.11
2023-01-19T15:02:40.910Z,24.19
2023-01-19T15:03:45.660Z,24.25
2023-01-19T15:05:40.808Z,24.52
2023-01-19T15:06:40.786Z,24.40
2023-01-19T15:07:40.781Z,23.76
2023-01-19T15:08:40.751Z,24.13
2023-01-19T15:09:40.751Z,24.32
2023-01-19T15:10:40.721Z,24.45
2023-01-19T15:11:40.709Z,24.53
2023-01-19T15:12:40.693Z,24.29
2023-01-19T15:13:40.695Z,24.11
2023-01-19T15:14:40.681Z,24.09
2023-01-19T15:15:40.657Z,24.30
2023-01-19T15:16:40.627Z,24.35
2023-01-19T15:17:40.624Z,24.37
2023-01-19T15:18:40.596Z,23.94
2023-01-19T15:19:40.599Z,24.03
2023-01-19T15:20:40.575Z,24.12
2023-01-19T15:21:40.547Z,24.18
2023-01-19T15:22:40.525Z,24.48
2023-01-19T15:23:40.510Z,24.24
2023-01-19T15:24:40.492Z,23.97
2023-01-19T15:25:40.478Z,24.20
2023-01-19T15:26:40.458Z,24.29
2023-01-19T15:27:40.460Z,24.06
2023-01-19T15:28:40.438Z,24.48
2023-01-19T15:29:40.489Z,24.26
2023-01-19T15:30:40.435Z,23.89
2023-01-19T15:31:40.419Z,24.26
2023-01-19T15:32:40.376Z,24.22
2023-01-19T15:33:40.352Z,24.30
2023-01-19T15:34:40.347Z,24.40
2023-01-19T15:35:40.395Z,24.10
2023-01-19T15:36:40.304Z,23.78
2023-01-19T15:37:40.289Z,24.30
2023-01-19T15:38:40.271Z,24.15
2023-01-19T15:39:40.253Z,24.42
2023-01-19T15:40:40.244Z,24.28
2023-01-19T15:41:40.223Z,23.86
2023-01-19T15:42:40.212Z,24.13
2023-01-19T15:43:40.194Z,24.21
2023-01-19T15:44:40.160Z,24.39
2023-01-19T15:45:40.152Z,24.49
2023-01-19T15:46:40.146Z,24.24
2023-01-19T15:47:40.107Z,24.03
2023-01-19T15:48:40.112Z,24.17
2023-01-19T15:49:40.072Z,24.28
2023-01-19T15:50:40.068Z,24.46
2023-01-19T15:51:40.037Z,24.48
2023-01-19T15:52:40.021Z,24.56
2023-01-19T15:53:40.004Z,24.61
2023-01-19T15:54:40.015Z,24.59
2023-01-19T15:55:39.993Z,24.61
2023-01-19T15:56:39.993Z,24.67
2023-01-19T15:57:39.968Z,24.63
2023-01-19T15:58:39.937Z,24.75
2023-01-19T15:59:39.919Z,24.74
2023-01-19T16:00:39.941Z,24.73
2023-01-19T16:01:40.003Z,24.77
2023-01-19T16:02:39.923Z,24.82
2023-01-19T16:03:39.869Z,24.86
2023-01-19T16:04:39.875Z,24.82